Detall de PIREP

Printer-friendly versionPDF version

[2013/01/27 15:34:00]
Flight IATA:CT0001
Pilot Number:012
Company ICAO:CAT
Aircraft Type:F28/A
PAX:85
Departing Airport: LEVC
Destination Airport: LEDA
Alternate Airport:LEBL
Online: VATSIM
Route:TATOS A34 SEROX H110 OSVAK
Flight Level:F200
No Slew and time accel
No pause
Crash detect
Detect pilot in Cockpit between each 30 and 45 minutes
15:34 Zero fuel Weight: 54134 Lbs, Fuel Weight: 10059 Lbs
15:34 VATSIM:LEVC 271500Z 27012KT 9999 FEW030 17/06 Q1014 NOSIG
15:34 VATSIM:LEDA 271500Z 24003KT 210V290 9999 FEW060 SCT080 09/04 Q1014
15:34 VOICE CATALONIAN
15:35 Parking Brakes off
15:39 Take-off
15:39 Take off Weight: 63873 Lbs
15:39 Wind: 273º @ 012 Knots Heading: 294º
15:39 POS N39º 29´ 23´´ W000º 28´ 56´´
15:39 Gear Up: 156 Knots
15:39 Flaps:1 at 156 Knots
15:40 Flaps:0 at 179 Knots
15:50 TOC
15:50 Fuel Weight: 8313 Lb
15:54 Wind:275º@030 Knots Heading: 024º Ground Speed: 382 Knots Altitude 20019 ft
15:59 TOD
15:59 Fuel Weight: 7528 Lb
16:08 Flaps:1 at 177 Knots
16:09 Wind:317º@002 Knots Heading: 053º Ground Speed: 185 Knots Altitude 3956 ft
16:10 Flaps:2 at 171 Knots
16:11 Flaps:3 at 143 Knots
16:11 Flaps:4 at 143 Knots
16:11 Gear Down: 143 Knots
16:14 TouchDown:Rate -129 ft/min Speed: 123 Knots
16:15 VATSIM:LEDA 271600Z 22003KT 9999 FEW060 SCT080 09/05 Q1013
16:15 Land
16:15 Wind:003º@002 Knots
16:15 Heading: 315º
16:15 Flight Duration: 00:36
16:15 Landing Weight: 61088 Lbs
16:15 POS N41º 43´ 47´´ E000º 31´ 57´´
16:18 Parking brakes on
16:18 Block to Block Duration: 00:43
16:18 Final Fuel: 6840 Lbls
16:18 Spent Fuel: 3218 Lbls
16:18 Flight Length: 174 NM
16:18 TOD Land Length: 63 NM

Exportar CSV

Powered by Drupal - Modified by Danger4k